createdAt,value
2023-03-27T00:01:17.091Z,101359.47
2023-03-27T00:03:44.908Z,101353.25
2023-03-27T00:06:16.520Z,101358.59
2023-03-27T00:08:44.560Z,101368.38
2023-03-27T00:11:11.789Z,101366.63
2023-03-27T00:13:49.073Z,101360.38
2023-03-27T00:16:17.639Z,101369.25
2023-03-27T00:18:45.007Z,101367.50
2023-03-27T00:21:11.751Z,101371.06
2023-03-27T00:23:38.384Z,101369.25
2023-03-27T00:26:05.483Z,101371.94
2023-03-27T00:28:32.384Z,101375.50
2023-03-27T00:31:01.456Z,101373.72
2023-03-27T00:33:28.072Z,101383.50
2023-03-27T00:35:54.709Z,101374.59
2023-03-27T00:38:21.550Z,101378.16
2023-03-27T00:40:50.758Z,101384.41
2023-03-27T00:43:29.116Z,101387.03
2023-03-27T00:46:01.357Z,101395.06
2023-03-27T00:48:29.398Z,101399.56
2023-03-27T00:50:57.470Z,101399.56
2023-03-27T00:53:26.826Z,101397.78
2023-03-27T00:55:56.387Z,101412.00
2023-03-27T00:58:45.605Z,101404.91
2023-03-27T01:01:15.173Z,101405.75
2023-03-27T01:03:44.665Z,101409.31
2023-03-27T01:06:13.948Z,101411.13
2023-03-27T01:08:41.825Z,101405.78
2023-03-27T01:11:08.575Z,101402.22
2023-03-27T01:13:59.461Z,101404.88
2023-03-27T01:16:31.961Z,101406.63
2023-03-27T01:19:35.326Z,101406.66
2023-03-27T01:22:04.463Z,101407.56
2023-03-27T01:24:50.304Z,101402.19
2023-03-27T01:27:37.885Z,101395.97
2023-03-27T01:30:15.313Z,101402.19
2023-03-27T01:32:49.776Z,101400.38
2023-03-27T01:35:34.829Z,101404.84
2023-03-27T01:38:22.346Z,101409.31
2023-03-27T01:40:58.501Z,101405.75
2023-03-27T01:43:33.397Z,101405.72
2023-03-27T01:46:07.968Z,101411.09
2023-03-27T01:48:47.913Z,101410.25
2023-03-27T01:51:17.808Z,101419.09
2023-03-27T01:53:52.192Z,101426.19
2023-03-27T01:56:31.323Z,101435.94
2023-03-27T01:59:06.097Z,101433.31
2023-03-27T02:01:43.028Z,101443.97
2023-03-27T02:04:13.619Z,101452.88
2023-03-27T02:06:47.058Z,101440.41
2023-03-27T02:09:18.146Z,101458.22
2023-03-27T02:11:48.959Z,101457.34
2023-03-27T02:14:21.858Z,101449.31
2023-03-27T02:16:53.120Z,101447.56
2023-03-27T02:19:43.412Z,101449.34
2023-03-27T02:22:09.964Z,101453.75
2023-03-27T02:24:38.765Z,101451.09
2023-03-27T02:27:13.364Z,101458.16
2023-03-27T02:29:56.562Z,101451.94
2023-03-27T02:32:45.938Z,101447.50
2023-03-27T02:35:27.964Z,101454.56
2023-03-27T02:38:12.767Z,101452.84
2023-03-27T02:40:52.593Z,101465.28
2023-03-27T02:43:38.245Z,101451.00
2023-03-27T02:46:38.593Z,101457.25
2023-03-27T02:49:13.939Z,101457.25
2023-03-27T02:51:44.408Z,101464.31
2023-03-27T02:54:15.137Z,101466.16
2023-03-27T02:56:48.819Z,101461.69
2023-03-27T02:59:27.034Z,101465.25
2023-03-27T03:01:53.754Z,101471.47
2023-03-27T03:04:35.064Z,101465.25
2023-03-27T03:07:06.415Z,101478.59
2023-03-27T03:09:33.022Z,101477.66
2023-03-27T03:11:59.887Z,101465.13
2023-03-27T03:14:31.521Z,101467.88
2023-03-27T03:16:58.169Z,101474.19
2023-03-27T03:19:24.924Z,101470.53
2023-03-27T03:21:51.511Z,101478.53
2023-03-27T03:24:19.039Z,101476.81
2023-03-27T03:26:50.081Z,101479.44
2023-03-27T03:29:19.122Z,101473.19
2023-03-27T03:31:47.330Z,101484.84
2023-03-27T03:34:16.612Z,101485.69
2023-03-27T03:36:44.921Z,101488.34
2023-03-27T03:39:12.669Z,101488.41
2023-03-27T03:41:39.473Z,101491.03
2023-03-27T03:44:06.406Z,101499.00
2023-03-27T03:46:33.182Z,101502.56
2023-03-27T03:49:00.468Z,101504.28
2023-03-27T03:51:28.252Z,101503.34
2023-03-27T03:53:54.858Z,101513.22
2023-03-27T03:56:21.453Z,101509.75
2023-03-27T03:58:48.031Z,101516.84
2023-03-27T04:01:14.576Z,101515.88
2023-03-27T04:03:41.653Z,101532.81
2023-03-27T04:06:08.759Z,101530.03
2023-03-27T04:08:35.438Z,101526.47
2023-03-27T04:11:02.064Z,101535.44
2023-03-27T04:13:28.631Z,101526.47
2023-03-27T04:15:55.555Z,101538.09
2023-03-27T04:18:24.745Z,101535.50
2023-03-27T04:20:51.441Z,101544.25
2023-03-27T04:23:20.730Z,101543.28
2023-03-27T04:25:47.444Z,101546.88
2023-03-27T04:28:17.638Z,101559.34
2023-03-27T04:30:44.780Z,101577.19
2023-03-27T04:33:18.547Z,101578.84
2023-03-27T04:35:46.050Z,101587.66
2023-03-27T04:38:34.182Z,101602.03
2023-03-27T04:41:01.989Z,101604.59
2023-03-27T04:43:28.763Z,101606.34
2023-03-27T04:45:55.306Z,101604.59
2023-03-27T04:48:21.850Z,101593.03
2023-03-27T04:50:51.403Z,101598.41
2023-03-27T04:53:21.950Z,101597.41
2023-03-27T04:55:51.272Z,101584.09
2023-03-27T04:58:18.387Z,101592.09
2023-03-27T05:00:50.412Z,101587.66
2023-03-27T05:03:20.800Z,101603.63
2023-03-27T05:05:49.639Z,101597.34
2023-03-27T05:08:16.820Z,101612.41
2023-03-27T05:10:44.214Z,101607.13
2023-03-27T05:13:10.780Z,101606.25
2023-03-27T05:15:39.041Z,101608.06
2023-03-27T05:18:07.203Z,101617.84
2023-03-27T05:20:34.512Z,101610.75
2023-03-27T05:23:01.094Z,101613.44
2023-03-27T05:25:28.800Z,101611.69
2023-03-27T05:27:55.499Z,101623.22
2023-03-27T05:30:23.536Z,101621.38
2023-03-27T05:32:52.452Z,101625.84
2023-03-27T05:35:22.473Z,101635.63
2023-03-27T05:37:51.197Z,101630.25
2023-03-27T05:40:22.831Z,101642.75
2023-03-27T05:42:50.485Z,101633.75
2023-03-27T05:45:17.892Z,101637.19
2023-03-27T05:47:46.520Z,101644.38
2023-03-27T05:50:14.400Z,101636.38
2023-03-27T05:52:41.456Z,101644.41
2023-03-27T05:55:08.842Z,101642.63
2023-03-27T05:57:39.416Z,101639.00
2023-03-27T06:00:11.741Z,101653.53
2023-03-27T06:02:39.326Z,101651.97
2023-03-27T06:05:11.617Z,101653.78
2023-03-27T06:07:43.143Z,101653.00
2023-03-27T06:10:14.188Z,101658.47
2023-03-27T06:12:41.839Z,101664.84
2023-03-27T06:15:09.735Z,101663.16
2023-03-27T06:17:38.381Z,101675.72
2023-03-27T06:20:11.333Z,101672.25
2023-03-27T06:22:49.250Z,101682.06
2023-03-27T06:25:16.330Z,101679.41
2023-03-27T06:27:44.094Z,101682.06
2023-03-27T06:30:12.893Z,101695.44
2023-03-27T06:32:47.295Z,101681.19
2023-03-27T06:35:14.768Z,101692.78
2023-03-27T06:37:42.504Z,101700.78
2023-03-27T06:40:10.352Z,101704.34
2023-03-27T06:42:38.219Z,101707.91
2023-03-27T06:45:05.612Z,101710.53
2023-03-27T06:47:36.347Z,101712.34
2023-03-27T06:50:07.460Z,101716.78
2023-03-27T06:52:34.003Z,101727.47
2023-03-27T06:55:00.580Z,101734.63
2023-03-27T06:57:27.143Z,101736.44
2023-03-27T06:59:53.745Z,101733.75
2023-03-27T07:02:20.604Z,101745.31
2023-03-27T07:04:57.773Z,101746.19
2023-03-27T07:07:28.457Z,101745.31
2023-03-27T07:09:55.022Z,101745.28
2023-03-27T07:12:21.638Z,101763.13
2023-03-27T07:14:48.198Z,101764.00
2023-03-27T07:17:14.754Z,101780.03
2023-03-27T07:19:41.327Z,101777.38
2023-03-27T07:22:07.865Z,101789.84
2023-03-27T07:24:34.420Z,101777.34
2023-03-27T07:27:01.259Z,101775.56
2023-03-27T07:29:33.103Z,101784.53
2023-03-27T07:32:01.694Z,101780.09
2023-03-27T07:34:33.905Z,101793.50
2023-03-27T07:37:00.873Z,101785.47
2023-03-27T07:39:27.419Z,101784.59
2023-03-27T07:41:53.981Z,101775.69
2023-03-27T07:44:21.104Z,101782.84
2023-03-27T07:46:47.862Z,101786.47
2023-03-27T07:49:14.796Z,101780.22
2023-03-27T07:51:41.359Z,101778.41
2023-03-27T07:54:13.199Z,101782.91
2023-03-27T07:56:40.888Z,101789.16
2023-03-27T07:59:07.872Z,101785.59
2023-03-27T08:01:38.006Z,101788.25
2023-03-27T08:04:05.740Z,101783.81
2023-03-27T08:06:32.541Z,101786.47
2023-03-27T08:09:01.543Z,101795.44
2023-03-27T08:11:31.009Z,101784.69
2023-03-27T08:13:58.579Z,101787.41
2023-03-27T08:16:28.975Z,101793.63
2023-03-27T08:18:56.168Z,101800.75
2023-03-27T08:21:27.095Z,101804.28
2023-03-27T08:23:57.315Z,101808.75
2023-03-27T08:26:26.500Z,101808.72
2023-03-27T08:28:54.404Z,101810.50
2023-03-27T08:31:21.035Z,101816.78
2023-03-27T08:33:47.730Z,101817.69
2023-03-27T08:36:14.630Z,101815.03
2023-03-27T08:38:43.038Z,101820.44
2023-03-27T08:41:21.948Z,101819.56
2023-03-27T08:43:49.270Z,101828.50
2023-03-27T08:46:22.605Z,101820.47
2023-03-27T08:49:05.309Z,101824.03
2023-03-27T08:51:37.228Z,101827.56
2023-03-27T08:54:21.532Z,101835.66
2023-03-27T08:56:48.995Z,101833.84
2023-03-27T08:59:18.697Z,101839.22
2023-03-27T09:01:59.357Z,101840.13
2023-03-27T09:04:36.352Z,101849.03
2023-03-27T09:07:11.646Z,101852.63
2023-03-27T09:13:16.434Z,101858.88
2023-03-27T09:16:10.987Z,101874.06
2023-03-27T09:18:42.077Z,101865.13
2023-03-27T09:21:41.741Z,101868.72
2023-03-27T09:24:16.459Z,101863.34
2023-03-27T09:26:43.130Z,101858.88
2023-03-27T09:29:25.972Z,101869.59
2023-03-27T09:31:58.868Z,101882.09
2023-03-27T09:34:28.909Z,101874.94
2023-03-27T09:36:56.056Z,101891.03
2023-03-27T09:39:27.538Z,101878.53
2023-03-27T09:42:01.140Z,101884.78
2023-03-27T09:44:36.976Z,101890.13
2023-03-27T09:47:11.431Z,101879.44
2023-03-27T09:49:38.764Z,101888.34
2023-03-27T09:52:07.962Z,101906.22
2023-03-27T09:54:56.732Z,101908.00
2023-03-27T09:57:32.238Z,101906.22
2023-03-27T10:00:03.357Z,101907.13
2023-03-27T10:02:31.086Z,101908.00
2023-03-27T10:05:13.600Z,101904.41
2023-03-27T10:07:41.522Z,101909.81
2023-03-27T10:10:17.485Z,101911.59
2023-03-27T10:12:47.342Z,101897.31
2023-03-27T10:15:40.493Z,101901.75
2023-03-27T10:18:20.169Z,101902.66
2023-03-27T10:20:54.124Z,101913.41
2023-03-27T10:23:41.270Z,101915.16
2023-03-27T10:26:10.114Z,101910.69
2023-03-27T10:28:40.924Z,101915.13
2023-03-27T10:31:24.660Z,101918.72
2023-03-27T10:33:51.516Z,101924.09
2023-03-27T10:36:20.047Z,101922.34
2023-03-27T10:38:56.418Z,101928.59
2023-03-27T10:41:28.407Z,101916.97
2023-03-27T10:43:56.933Z,101927.66
2023-03-27T10:46:26.439Z,101929.47
2023-03-27T10:49:31.047Z,101925.88
2023-03-27T10:52:11.995Z,101921.41
2023-03-27T10:55:02.802Z,101928.53
2023-03-27T10:57:31.241Z,101942.88
2023-03-27T11:00:21.446Z,101952.69
2023-03-27T11:03:12.017Z,101948.22
2023-03-27T11:05:47.220Z,101950.94
2023-03-27T11:08:43.767Z,101970.53
2023-03-27T11:11:30.990Z,101966.94
2023-03-27T11:14:02.492Z,101958.97
2023-03-27T11:16:41.516Z,101967.00
2023-03-27T11:19:10.991Z,101963.44
2023-03-27T11:21:53.801Z,101967.00
2023-03-27T11:24:49.955Z,101965.19
2023-03-27T11:27:28.566Z,101967.00
2023-03-27T11:30:08.275Z,101975.94
2023-03-27T11:32:37.824Z,101970.56
2023-03-27T11:35:13.639Z,101969.69
2023-03-27T11:38:01.363Z,101974.16
2023-03-27T11:40:42.793Z,101981.28
2023-03-27T11:43:13.706Z,101981.28
2023-03-27T11:46:15.541Z,101980.38
2023-03-27T11:48:47.916Z,101989.34
2023-03-27T11:51:44.301Z,101992.03
2023-03-27T11:54:20.882Z,101999.16
2023-03-27T11:56:54.813Z,102010.78
2023-03-27T11:59:42.976Z,102024.22
2023-03-27T12:02:29.010Z,102017.03
2023-03-27T12:05:03.954Z,102009.88
2023-03-27T12:07:47.701Z,102020.63
2023-03-27T12:10:29.251Z,102023.28
2023-03-27T12:13:28.842Z,102034.91
2023-03-27T12:16:20.252Z,102027.78
2023-03-27T12:19:03.940Z,102027.75
2023-03-27T12:25:34.197Z,102036.69
2023-03-27T12:28:22.992Z,102038.50
2023-03-27T12:31:19.363Z,102042.06
2023-03-27T12:33:50.668Z,102039.38
2023-03-27T12:36:21.633Z,102029.53
2023-03-27T12:38:49.180Z,102043.84
2023-03-27T12:41:23.306Z,102042.09
2023-03-27T12:43:57.901Z,102045.66
2023-03-27T12:46:24.541Z,102043.84
2023-03-27T12:48:58.268Z,102045.66
2023-03-27T12:51:44.108Z,102042.03
2023-03-27T12:54:25.696Z,102046.53
2023-03-27T12:57:13.852Z,102049.22
2023-03-27T12:59:54.402Z,102049.25
2023-03-27T13:02:36.369Z,102040.31
2023-03-27T13:05:27.751Z,102045.66
2023-03-27T13:08:10.271Z,102052.84
2023-03-27T13:11:11.649Z,102058.16
2023-03-27T13:13:56.400Z,102042.06
2023-03-27T13:16:31.117Z,102051.91
2023-03-27T13:19:00.845Z,102051.00
2023-03-27T13:22:11.385Z,102059.06
2023-03-27T13:25:08.220Z,102045.63
2023-03-27T13:27:46.084Z,102059.09
2023-03-27T13:30:42.027Z,102052.81
2023-03-27T13:33:31.593Z,102042.97
2023-03-27T13:35:58.319Z,102050.13
2023-03-27T13:38:52.747Z,102045.63
2023-03-27T13:41:48.478Z,102050.13
2023-03-27T13:44:31.056Z,102061.78
2023-03-27T13:47:21.942Z,102070.72
2023-03-27T13:50:14.579Z,102071.59
2023-03-27T13:52:54.517Z,102065.34
2023-03-27T13:55:27.888Z,102065.34
2023-03-27T13:58:06.791Z,102081.44
2023-03-27T14:00:56.791Z,102078.75
2023-03-27T14:03:42.078Z,102079.63
2023-03-27T14:06:24.067Z,102074.28
2023-03-27T14:09:19.682Z,102083.22
2023-03-27T14:12:09.209Z,102081.44
2023-03-27T14:14:47.715Z,102096.66
2023-03-27T14:17:37.874Z,102102.00
2023-03-27T14:20:19.174Z,102104.69
2023-03-27T14:22:49.289Z,102092.16
2023-03-27T14:25:19.762Z,102093.97
2023-03-27T14:27:56.372Z,102105.59
2023-03-27T14:30:28.199Z,102102.00
2023-03-27T14:32:58.763Z,102096.63
2023-03-27T14:35:29.055Z,102098.41
2023-03-27T14:38:00.244Z,102101.09
2023-03-27T14:40:35.639Z,102108.28
2023-03-27T14:43:06.218Z,102108.25
2023-03-27T14:45:34.626Z,102117.22
2023-03-27T14:48:10.271Z,102113.63
2023-03-27T14:50:39.834Z,102121.69
2023-03-27T14:53:10.015Z,102117.22
2023-03-27T14:55:38.403Z,102118.13
2023-03-27T14:58:11.307Z,102126.16
2023-03-27T15:00:40.608Z,102119.00
2023-03-27T15:03:14.299Z,102122.56
2023-03-27T15:05:57.386Z,102118.09
2023-03-27T15:08:33.989Z,102122.59
2023-03-27T15:11:00.700Z,102133.28
2023-03-27T15:13:34.137Z,102131.53
2023-03-27T15:16:01.023Z,102129.75
2023-03-27T15:18:43.022Z,102135.97
2023-03-27T15:21:19.901Z,102147.63
2023-03-27T15:24:05.856Z,102146.72
2023-03-27T15:26:36.148Z,102152.97
2023-03-27T15:29:24.119Z,102145.84
2023-03-27T15:31:51.962Z,102145.84
2023-03-27T15:34:25.083Z,102144.03
2023-03-27T15:36:55.673Z,102142.22
2023-03-27T15:39:22.722Z,102149.38
2023-03-27T15:41:53.612Z,102149.41
2023-03-27T15:44:22.875Z,102140.47
2023-03-27T15:46:51.098Z,102147.59
2023-03-27T15:49:19.874Z,102155.66
2023-03-27T15:51:49.551Z,102156.56
2023-03-27T15:54:30.560Z,102152.94
2023-03-27T15:57:09.151Z,102150.28
2023-03-27T15:59:37.566Z,102165.47
2023-03-27T16:02:21.313Z,102160.13
2023-03-27T16:04:53.552Z,102160.13
2023-03-27T16:07:30.376Z,102156.53
2023-03-27T16:10:02.685Z,102161.00
2023-03-27T16:12:39.321Z,102150.28
2023-03-27T16:15:08.436Z,102158.31
2023-03-27T16:17:41.070Z,102163.69
2023-03-27T16:20:08.120Z,102158.31
2023-03-27T16:22:37.234Z,102170.84
2023-03-27T16:25:08.415Z,102167.25
2023-03-27T16:27:40.634Z,102174.41
2023-03-27T16:30:09.837Z,102174.41
2023-03-27T16:32:37.010Z,102181.56
2023-03-27T16:35:03.802Z,102176.16
2023-03-27T16:37:32.977Z,102181.53
2023-03-27T16:40:02.566Z,102181.53
2023-03-27T16:42:29.131Z,102187.78
2023-03-27T16:44:55.861Z,102185.13
2023-03-27T16:47:23.471Z,102195.84
2023-03-27T16:50:03.604Z,102206.50
2023-03-27T16:52:36.693Z,102201.16
2023-03-27T16:55:07.716Z,102203.84
2023-03-27T16:57:34.847Z,102200.28
2023-03-27T17:00:01.491Z,102198.47
2023-03-27T17:02:28.851Z,102204.75
2023-03-27T17:04:55.802Z,102205.59
2023-03-27T17:07:24.902Z,102201.13
2023-03-27T17:09:51.713Z,102204.72
2023-03-27T17:12:18.297Z,102215.44
2023-03-27T17:14:44.890Z,102210.06
2023-03-27T17:17:11.794Z,102219.00
2023-03-27T17:19:38.379Z,102208.25
2023-03-27T17:22:04.937Z,102215.44
2023-03-27T17:24:31.640Z,102217.16
2023-03-27T17:26:59.013Z,102218.94
2023-03-27T17:29:26.433Z,102215.34
2023-03-27T17:31:53.505Z,102229.59
2023-03-27T17:34:20.181Z,102220.72
2023-03-27T17:36:54.015Z,102224.28
2023-03-27T17:39:27.947Z,102223.41
2023-03-27T17:41:54.501Z,102230.53
2023-03-27T17:44:21.282Z,102235.09
2023-03-27T17:46:47.987Z,102227.94
2023-03-27T17:49:15.696Z,102229.75
2023-03-27T17:51:43.773Z,102229.84
2023-03-27T17:54:11.370Z,102229.84
2023-03-27T17:56:38.091Z,102227.19
2023-03-27T17:59:05.962Z,102233.41
2023-03-27T18:01:32.580Z,102222.72
2023-03-27T18:04:00.643Z,102235.25
2023-03-27T18:06:27.330Z,102238.84
2023-03-27T18:08:53.916Z,102236.19
2023-03-27T18:11:20.685Z,102241.53
2023-03-27T18:13:52.662Z,102239.75
2023-03-27T18:16:20.785Z,102247.81
2023-03-27T18:18:47.474Z,102253.19
2023-03-27T18:21:16.142Z,102249.59
2023-03-27T18:23:45.795Z,102256.75
2023-03-27T18:26:13.563Z,102242.41
2023-03-27T18:28:40.302Z,102256.72
2023-03-27T18:31:10.658Z,102252.22
2023-03-27T18:33:37.397Z,102260.22
2023-03-27T18:36:12.030Z,102263.81
2023-03-27T18:38:40.317Z,102271.00
2023-03-27T18:41:07.110Z,102262.91
2023-03-27T18:43:34.081Z,102267.38
2023-03-27T18:46:05.235Z,102265.53
2023-03-27T18:48:35.269Z,102263.72
2023-03-27T18:51:04.045Z,102272.59
2023-03-27T18:53:30.865Z,102272.63
2023-03-27T18:56:00.477Z,102272.66
2023-03-27T18:58:28.355Z,102278.06
2023-03-27T19:00:55.754Z,102280.72
2023-03-27T19:03:25.949Z,102280.69
2023-03-27T19:05:52.845Z,102280.72
2023-03-27T19:08:22.090Z,102286.94
2023-03-27T19:10:48.910Z,102283.31
2023-03-27T19:13:15.992Z,102290.50
2023-03-27T19:15:42.810Z,102288.63
2023-03-27T19:18:09.434Z,102287.75
2023-03-27T19:20:36.270Z,102285.03
2023-03-27T19:23:03.073Z,102291.28
2023-03-27T19:25:29.651Z,102290.34
2023-03-27T19:27:56.386Z,102299.38
2023-03-27T19:30:24.024Z,102291.38
2023-03-27T19:32:51.506Z,102289.63
2023-03-27T19:35:19.691Z,102292.28
2023-03-27T19:37:47.147Z,102292.22
2023-03-27T19:40:14.294Z,102302.00
2023-03-27T19:42:41.129Z,102302.81
2023-03-27T19:45:08.744Z,102300.13
2023-03-27T19:47:35.492Z,102308.13
2023-03-27T19:50:02.038Z,102312.56
2023-03-27T19:52:29.248Z,102317.88
2023-03-27T19:54:55.912Z,102324.13
2023-03-27T19:57:22.548Z,102329.44
2023-03-27T19:59:49.332Z,102331.19
2023-03-27T20:02:16.743Z,102316.91
2023-03-27T20:04:43.424Z,102316.88
2023-03-27T20:07:10.241Z,102319.53
2023-03-27T20:09:37.273Z,102312.38
2023-03-27T20:12:04.629Z,102316.72
2023-03-27T20:14:32.727Z,102319.41
2023-03-27T20:16:59.326Z,102323.00
2023-03-27T20:19:30.814Z,102317.66
2023-03-27T20:22:00.049Z,102305.97
2023-03-27T20:24:26.674Z,102311.38
2023-03-27T20:26:58.617Z,102314.88
2023-03-27T20:29:29.271Z,102308.59
2023-03-27T20:31:57.059Z,102316.63
2023-03-27T20:34:24.078Z,102312.88
2023-03-27T20:36:53.270Z,102333.41
2023-03-27T20:39:29.454Z,102327.06
2023-03-27T20:41:59.119Z,102331.53
2023-03-27T20:44:35.381Z,102350.34
2023-03-27T20:47:03.548Z,102335.03
2023-03-27T20:49:40.558Z,102333.13
2023-03-27T20:52:12.755Z,102327.81
2023-03-27T20:54:39.472Z,102328.63
2023-03-27T20:57:06.352Z,102323.28
2023-03-27T20:59:37.457Z,102328.56
2023-03-27T21:02:05.482Z,102334.78
2023-03-27T21:04:32.180Z,102324.00
2023-03-27T21:06:59.267Z,102333.78
2023-03-27T21:09:27.016Z,102327.63
2023-03-27T21:11:57.194Z,102322.16
2023-03-27T21:14:23.940Z,102325.69
2023-03-27T21:16:50.898Z,102327.47
2023-03-27T21:19:17.828Z,102324.75
2023-03-27T21:21:44.784Z,102343.47
2023-03-27T21:24:11.490Z,102358.72
2023-03-27T21:26:42.561Z,102353.34
2023-03-27T21:29:12.080Z,102345.28
2023-03-27T21:31:39.575Z,102334.59
2023-03-27T21:34:09.972Z,102333.63
2023-03-27T21:36:37.916Z,102344.19
2023-03-27T21:39:04.835Z,102340.63
2023-03-27T21:41:31.972Z,102347.72
2023-03-27T21:43:58.521Z,102344.25
2023-03-27T21:46:30.332Z,102342.53
2023-03-27T21:48:57.060Z,102342.44
2023-03-27T21:51:23.624Z,102342.38
2023-03-27T21:53:50.212Z,102353.06
2023-03-27T21:56:25.484Z,102351.28
2023-03-27T21:58:52.267Z,102347.56
2023-03-27T22:01:21.370Z,102348.59
2023-03-27T22:04:01.906Z,102350.31
2023-03-27T22:06:31.605Z,102349.47
2023-03-27T22:08:58.165Z,102351.19
2023-03-27T22:11:24.760Z,102353.69
2023-03-27T22:13:51.861Z,102346.63
2023-03-27T22:16:21.135Z,102357.34
2023-03-27T22:18:47.767Z,102362.66
2023-03-27T22:21:16.177Z,102350.94
2023-03-27T22:23:42.979Z,102364.41
2023-03-27T22:26:09.963Z,102365.13
2023-03-27T22:28:38.858Z,102357.13
2023-03-27T22:31:05.874Z,102372.28
2023-03-27T22:33:34.560Z,102365.25
2023-03-27T22:36:01.454Z,102372.16
2023-03-27T22:38:32.545Z,102366.94
2023-03-27T22:40:59.764Z,102372.13
2023-03-27T22:43:28.963Z,102369.47
2023-03-27T22:45:55.915Z,102372.91
2023-03-27T22:48:22.535Z,102370.38
2023-03-27T22:50:59.514Z,102372.28
2023-03-27T22:53:26.857Z,102375.66
2023-03-27T22:55:55.984Z,102381.06
2023-03-27T22:58:22.806Z,102385.47
2023-03-27T23:00:50.969Z,102387.19
2023-03-27T23:03:17.802Z,102381.00
2023-03-27T23:05:49.496Z,102381.06
2023-03-27T23:08:17.651Z,102397.13
2023-03-27T23:10:44.417Z,102393.66
2023-03-27T23:13:11.283Z,102398.94
2023-03-27T23:15:38.107Z,102393.41
2023-03-27T23:18:05.176Z,102399.72
2023-03-27T23:20:32.397Z,102407.56
2023-03-27T23:22:58.976Z,102412.97
2023-03-27T23:25:25.524Z,102404.13
2023-03-27T23:27:52.083Z,102404.03
2023-03-27T23:30:18.663Z,102400.50
2023-03-27T23:32:45.444Z,102410.19
2023-03-27T23:35:12.217Z,102415.56
2023-03-27T23:37:39.635Z,102415.56
2023-03-27T23:40:08.351Z,102411.09
2023-03-27T23:42:34.922Z,102422.59
2023-03-27T23:45:01.470Z,102419.03
2023-03-27T23:47:28.036Z,102414.63
2023-03-27T23:49:54.616Z,102419.06
2023-03-27T23:52:21.226Z,102424.34
2023-03-27T23:54:47.805Z,102428.91
2023-03-27T23:57:14.407Z,102425.28
2023-03-27T23:59:41.462Z,102428.84
